Time;durP1;ratioP1;P1;durP2;ratioP2;P2;SDS_P1;SDS_P2;PMS_P1;PMS_P2;Temp;Humidity;BMP_temperature;BMP_pressure;BME280_temperature;BME280_humidity;BME280_pressure;Samples;Min_cycle;Max_cycle;Signal;HPM_P1;HPM_P2
2022/12/16 00:02:06;;;;;;;6.10;2.80;;;;;;;;;;5124859;27;20031;-79
2022/12/16 00:04:36;;;;;;;7.25;2.83;;;;;;;;;;5128279;27;20035;-77
2022/12/16 00:07:06;;;;;;;6.90;2.35;;;;;;;;;;5124957;27;20043;-75
2022/12/16 00:09:36;;;;;;;7.20;2.60;;;;;;;;;;5127915;27;20040;-76
2022/12/16 00:12:06;;;;;;;8.88;2.92;;;;;;;;;;5127965;27;20604;-76
2022/12/16 00:14:36;;;;;;;5.30;2.30;;;;;;;;;;5127946;27;20035;-77
2022/12/16 00:17:07;;;;;;;5.00;2.70;;;;;;;;;;5127509;27;20039;-77
2022/12/16 00:19:36;;;;;;;8.20;2.42;;;;;;;;;;5128061;27;20043;-77
2022/12/16 00:22:06;;;;;;;7.45;2.63;;;;;;;;;;5128039;27;20062;-79
2022/12/16 00:24:36;;;;;;;6.00;2.60;;;;;;;;;;5127620;27;20043;-75
2022/12/16 00:27:06;;;;;;;5.28;2.53;;;;;;;;;;5127509;27;20035;-77
2022/12/16 00:29:36;;;;;;;4.38;2.50;;;;;;;;;;5126585;27;20505;-77
2022/12/16 00:32:06;;;;;;;8.25;2.30;;;;;;;;;;5128347;27;20047;-75
2022/12/16 00:34:35;;;;;;;7.45;2.47;;;;;;;;;;5127450;27;20059;-78
2022/12/16 00:37:05;;;;;;;7.50;2.80;;;;;;;;;;5127225;27;20047;-77
2022/12/16 00:39:35;;;;;;;5.95;2.67;;;;;;;;;;5127822;27;20481;-77
2022/12/16 00:42:06;;;;;;;7.20;2.80;;;;;;;;;;5127427;27;20047;-76
2022/12/16 00:44:36;;;;;;;3.90;2.17;;;;;;;;;;5126302;27;20051;-76
2022/12/16 00:47:05;;;;;;;6.13;2.42;;;;;;;;;;5126678;27;20047;-75
2022/12/16 00:49:35;;;;;;;5.80;2.25;;;;;;;;;;5126775;27;20050;-76
2022/12/16 00:52:05;;;;;;;5.53;2.42;;;;;;;;;;5127609;27;20039;-78
2022/12/16 00:54:35;;;;;;;8.65;2.67;;;;;;;;;;5127196;27;20587;-74
2022/12/16 00:57:05;;;;;;;7.22;2.47;;;;;;;;;;5127283;27;20047;-77
2022/12/16 00:59:35;;;;;;;10.82;2.40;;;;;;;;;;5127815;27;20397;-76
2022/12/16 01:02:05;;;;;;;5.05;2.13;;;;;;;;;;5127105;27;20378;-75
2022/12/16 01:04:35;;;;;;;5.03;2.47;;;;;;;;;;5127284;27;20038;-76
2022/12/16 01:07:05;;;;;;;8.70;2.60;;;;;;;;;;5126373;27;20046;-77
2022/12/16 01:09:36;;;;;;;5.95;2.70;;;;;;;;;;5125802;27;20429;-75
2022/12/16 01:12:06;;;;;;;5.13;2.75;;;;;;;;;;5126865;27;20043;-77
2022/12/16 01:14:36;;;;;;;8.07;2.38;;;;;;;;;;5126374;27;20592;-75
2022/12/16 01:17:05;;;;;;;7.68;2.20;;;;;;;;;;5125364;27;20350;-72
2022/12/16 01:19:36;;;;;;;4.43;2.53;;;;;;;;;;5125124;27;20501;-72
2022/12/16 01:22:06;;;;;;;3.38;2.17;;;;;;;;;;5126939;27;20057;-73
2022/12/16 01:24:36;;;;;;;5.45;2.30;;;;;;;;;;5128162;28;20535;-74
2022/12/16 01:27:05;;;;;;;8.82;2.80;;;;;;;;;;5127754;27;20054;-73
2022/12/16 01:29:35;;;;;;;5.07;2.50;;;;;;;;;;5126267;27;20039;-73
2022/12/16 01:32:05;;;;;;;5.45;2.45;;;;;;;;;;5125988;27;20054;-74
2022/12/16 01:34:35;;;;;;;6.82;2.50;;;;;;;;;;5124904;27;20042;-74
2022/12/16 01:37:05;;;;;;;7.00;2.80;;;;;;;;;;5125716;28;20501;-74
2022/12/16 01:39:35;;;;;;;7.45;2.75;;;;;;;;;;5125704;27;20054;-73
2022/12/16 01:42:12;;;;;;;5.57;2.38;;;;;;;;;;5125698;28;20402;-74
2022/12/16 01:44:44;;;;;;;6.43;2.70;;;;;;;;;;5125040;27;20062;-74
2022/12/16 01:47:19;;;;;;;7.20;2.78;;;;;;;;;;5125026;27;20039;-74
2022/12/16 01:50:03;;;;;;;6.97;2.90;;;;;;;;;;5125024;28;20054;-74
2022/12/16 01:52:39;;;;;;;7.70;2.47;;;;;;;;;;5126918;27;20142;-74
2022/12/16 01:55:14;;;;;;;;;;;;;;;;;;5127364;27;20050;-75
2022/12/16 01:57:51;;;;;;;6.50;3.00;;;;;;;;;;5126835;27;19919;-74
2022/12/16 02:00:22;;;;;;;7.03;3.22;;;;;;;;;;5126624;27;20526;-74
2022/12/16 02:02:54;;;;;;;11.70;3.55;;;;;;;;;;5124702;28;20054;-77
2022/12/16 02:05:25;;;;;;;4.75;2.53;;;;;;;;;;5126634;28;20035;-74
2022/12/16 02:08:09;;;;;;;7.75;2.85;;;;;;;;;;5126394;28;20043;-74
2022/12/16 02:10:42;;;;;;;10.13;3.60;;;;;;;;;;5127164;28;20039;-74
2022/12/16 02:13:27;;;;;;;12.40;3.17;;;;;;;;;;5126378;27;20047;-74
2022/12/16 02:16:18;;;;;;;13.48;3.75;;;;;;;;;;5125143;28;20039;-74
2022/12/16 02:19:13;;;;;;;9.80;3.13;;;;;;;;;;5126987;28;20082;-73
2022/12/16 02:21:57;;;;;;;8.95;3.42;;;;;;;;;;5126963;28;20040;-73
2022/12/16 02:24:46;;;;;;;7.47;2.67;;;;;;;;;;5127512;28;20400;-73
2022/12/16 02:27:45;;;;;;;9.32;3.60;;;;;;;;;;5126659;27;20046;-72
2022/12/16 02:30:22;;;;;;;10.50;3.42;;;;;;;;;;5089057;27;20867;-74
2022/12/16 02:33:24;;;;;;;7.82;2.88;;;;;;;;;;5128661;27;20066;-80
2022/12/16 02:36:02;;;;;;;6.93;3.33;;;;;;;;;;5129096;27;20054;-73
2022/12/16 02:38:36;;;;;;;9.80;3.28;;;;;;;;;;5129935;27;20050;-74
2022/12/16 02:41:31;;;;;;;10.90;3.97;;;;;;;;;;5130120;27;20043;-73
2022/12/16 02:44:09;;;;;;;11.88;3.53;;;;;;;;;;5122654;27;20046;-75
2022/12/16 02:46:50;;;;;;;7.97;3.63;;;;;;;;;;5129626;27;20047;-74
2022/12/16 02:49:20;;;;;;;7.32;4.30;;;;;;;;;;5129434;27;20043;-74
2022/12/16 02:51:50;;;;;;;9.57;4.45;;;;;;;;;;5128679;27;20054;-74
2022/12/16 02:54:21;;;;;;;11.15;4.65;;;;;;;;;;5130241;27;20051;-74
2022/12/16 02:57:19;;;;;;;11.32;4.72;;;;;;;;;;5129754;27;20062;-74
2022/12/16 03:00:20;;;;;;;15.20;6.18;;;;;;;;;;5129487;27;20039;-79
2022/12/16 03:02:59;;;;;;;12.77;6.63;;;;;;;;;;5130030;27;20066;-74
2022/12/16 03:05:41;;;;;;;18.85;7.15;;;;;;;;;;5129576;27;20039;-74
2022/12/16 03:08:23;;;;;;;15.07;7.07;;;;;;;;;;5129773;27;20039;-73
2022/12/16 03:10:59;;;;;;;15.65;6.68;;;;;;;;;;5128537;27;20410;-73
2022/12/16 03:13:34;;;;;;;15.70;7.65;;;;;;;;;;5129070;27;20051;-74
2022/12/16 03:16:06;;;;;;;16.35;7.97;;;;;;;;;;5129422;27;20547;-74
2022/12/16 03:18:41;;;;;;;16.83;7.03;;;;;;;;;;5129150;27;20035;-73
2022/12/16 03:21:13;;;;;;;15.07;7.18;;;;;;;;;;5129787;27;20559;-74
2022/12/16 03:23:51;;;;;;;20.48;7.32;;;;;;;;;;5130084;27;20047;-74
2022/12/16 03:26:30;;;;;;;17.45;7.47;;;;;;;;;;5129463;27;20031;-73
2022/12/16 03:29:09;;;;;;;13.75;7.80;;;;;;;;;;5129169;27;20484;-74
2022/12/16 03:31:54;;;;;;;15.85;6.65;;;;;;;;;;5129971;27;20222;-73
2022/12/16 03:34:42;;;;;;;16.85;6.68;;;;;;;;;;5127265;27;20047;-74
2022/12/16 03:37:13;;;;;;;;;;;;;;;;;;5129106;27;20057;-73
2022/12/16 03:39:48;;;;;;;17.02;7.93;;;;;;;;;;5128482;27;19919;-74
2022/12/16 03:42:19;;;;;;;18.40;6.90;;;;;;;;;;5129172;27;20058;-74
2022/12/16 03:44:50;;;;;;;17.05;7.43;;;;;;;;;;5115691;27;20043;-73
2022/12/16 03:47:20;;;;;;;16.88;7.15;;;;;;;;;;5106475;28;20059;-73
2022/12/16 03:49:52;;;;;;;15.85;7.40;;;;;;;;;;5108359;28;20062;-74
2022/12/16 03:52:21;;;;;;;16.90;7.75;;;;;;;;;;5108418;28;20046;-74
2022/12/16 03:54:51;;;;;;;15.65;7.22;;;;;;;;;;5108473;28;20058;-74
2022/12/16 03:57:22;;;;;;;19.70;7.68;;;;;;;;;;5108353;28;20051;-73
2022/12/16 03:59:52;;;;;;;16.63;7.78;;;;;;;;;;5108020;28;20047;-74
2022/12/16 04:02:22;;;;;;;17.25;6.82;;;;;;;;;;5107586;28;20401;-74
2022/12/16 04:04:52;;;;;;;14.60;7.53;;;;;;;;;;5105805;28;20047;-74
2022/12/16 04:07:24;;;;;;;16.23;6.70;;;;;;;;;;5090082;28;20048;-74
2022/12/16 04:09:55;;;;;;;16.23;6.57;;;;;;;;;;5107124;28;20040;-74
2022/12/16 04:29:26;;;;;;;15.10;6.93;;;;;;;;;;5107498;28;20043;-73
2022/12/16 04:31:57;;;;;;;14.68;6.18;;;;;;;;;;5107612;28;20047;-73
2022/12/16 04:34:28;;;;;;;12.98;5.93;;;;;;;;;;5108113;28;20386;-73
